createdAt,value
2023-04-15T00:01:45.789Z,26.92
2023-04-15T00:04:48.520Z,16.93
2023-04-15T00:07:51.423Z,13.95
2023-04-15T00:10:53.874Z,20.35
2023-04-15T00:13:56.534Z,13.38
2023-04-15T00:16:59.071Z,29.13
2023-04-15T00:20:01.631Z,29.20
2023-04-15T00:23:04.449Z,19.77
2023-04-15T00:26:07.554Z,11.00
2023-04-15T00:29:10.463Z,12.05
2023-04-15T00:32:13.437Z,13.20
2023-04-15T00:35:16.782Z,12.33
2023-04-15T00:38:19.642Z,11.55
2023-04-15T00:41:23.097Z,12.02
2023-04-15T00:44:25.765Z,9.73
2023-04-15T00:47:29.911Z,10.30
2023-04-15T00:50:33.436Z,9.23
2023-04-15T00:53:35.977Z,12.35
2023-04-15T00:56:39.416Z,10.35
2023-04-15T00:59:41.858Z,12.57
2023-04-15T01:02:44.647Z,10.18
2023-04-15T01:05:47.382Z,16.67
2023-04-15T01:08:50.057Z,14.68
2023-04-15T01:11:52.842Z,11.27
2023-04-15T01:14:56.262Z,11.50
2023-04-15T01:18:03.302Z,14.13
2023-04-15T01:21:07.101Z,12.43
2023-04-15T01:24:10.720Z,11.75
2023-04-15T01:27:13.167Z,13.15
2023-04-15T01:30:15.609Z,12.95
2023-04-15T01:33:18.166Z,12.18
2023-04-15T01:36:22.163Z,13.37
2023-04-15T01:39:28.720Z,11.00
2023-04-15T01:42:32.774Z,11.98
2023-04-15T01:45:35.196Z,15.07
2023-04-15T01:48:39.942Z,12.30
2023-04-15T01:51:42.602Z,9.63
2023-04-15T01:54:45.135Z,11.13
2023-04-15T01:57:47.906Z,13.35
2023-04-15T02:00:50.640Z,12.57
2023-04-15T02:03:53.868Z,12.82
2023-04-15T02:06:57.679Z,11.63
2023-04-15T02:10:00.458Z,11.45
2023-04-15T02:13:03.039Z,11.43
2023-04-15T02:16:15.880Z,16.05
2023-04-15T02:19:19.407Z,26.08
2023-04-15T02:22:22.526Z,23.93
2023-04-15T02:25:25.192Z,18.42
2023-04-15T02:28:27.716Z,15.50
2023-04-15T02:31:30.470Z,16.98
2023-04-15T02:34:34.732Z,16.98
2023-04-15T02:37:43.523Z,25.17
2023-04-15T02:40:46.727Z,19.92
2023-04-15T02:43:49.433Z,28.55
2023-04-15T02:46:53.669Z,27.90
2023-04-15T02:49:58.635Z,27.13
2023-04-15T02:53:01.806Z,17.13
2023-04-15T02:56:06.170Z,18.98
2023-04-15T02:59:08.690Z,13.93
2023-04-15T03:02:11.656Z,14.95
2023-04-15T03:05:14.630Z,14.90
2023-04-15T03:08:23.556Z,12.63
2023-04-15T03:11:27.313Z,13.18
2023-04-15T03:14:29.764Z,14.85
2023-04-15T03:17:32.311Z,14.40
2023-04-15T03:20:36.547Z,12.88
2023-04-15T03:23:39.071Z,12.80
2023-04-15T03:26:41.602Z,17.75
2023-04-15T03:29:47.935Z,17.63
2023-04-15T03:32:53.496Z,12.40
2023-04-15T03:35:56.074Z,10.65
2023-04-15T03:38:58.829Z,11.90
2023-04-15T03:42:01.982Z,11.50
2023-04-15T03:45:04.838Z,13.23
2023-04-15T03:48:17.259Z,12.88
2023-04-15T03:51:20.685Z,12.30
2023-04-15T03:54:23.221Z,12.80
2023-04-15T03:57:25.664Z,12.10
2023-04-15T04:00:28.154Z,13.48
2023-04-15T04:03:31.088Z,12.18
2023-04-15T04:06:33.811Z,15.00
2023-04-15T04:09:36.329Z,13.13
2023-04-15T04:12:39.088Z,14.43
2023-04-15T04:15:41.525Z,14.68
2023-04-15T04:18:44.084Z,17.50
2023-04-15T04:21:47.571Z,14.40
2023-04-15T04:24:50.232Z,22.40
2023-04-15T04:27:52.925Z,27.23
2023-04-15T04:30:56.380Z,23.50
2023-04-15T04:33:58.760Z,21.00
2023-04-15T04:37:01.375Z,20.10
2023-04-15T04:40:04.648Z,19.80
2023-04-15T04:43:07.181Z,20.08
2023-04-15T04:46:10.480Z,17.15
2023-04-15T04:49:13.055Z,14.15
2023-04-15T04:52:16.135Z,17.00
2023-04-15T04:55:18.538Z,11.97
2023-04-15T04:58:21.433Z,12.30
2023-04-15T05:01:24.019Z,9.82
2023-04-15T05:04:26.578Z,14.05
2023-04-15T05:07:29.049Z,11.65
2023-04-15T05:10:31.726Z,11.20
2023-04-15T05:13:34.274Z,12.00
2023-04-15T05:16:36.751Z,12.43
2023-04-15T05:19:39.400Z,10.38
2023-04-15T05:22:42.106Z,9.73
2023-04-15T05:25:44.569Z,9.70
2023-04-15T05:28:47.942Z,9.80
2023-04-15T05:31:50.827Z,10.55
2023-04-15T05:34:53.691Z,11.45
2023-04-15T05:37:56.399Z,11.82
2023-04-15T05:40:59.011Z,13.73
2023-04-15T05:44:01.819Z,11.27
2023-04-15T05:47:04.297Z,10.35
2023-04-15T05:50:07.383Z,10.30
2023-04-15T05:53:10.030Z,8.13
2023-04-15T05:56:12.648Z,10.03
2023-04-15T05:59:15.321Z,9.52
2023-04-15T06:02:17.971Z,7.82
2023-04-15T06:05:20.591Z,9.43
2023-04-15T06:08:23.152Z,8.80
2023-04-15T06:11:26.816Z,8.27
2023-04-15T06:14:29.310Z,8.20
2023-04-15T06:17:31.808Z,9.00
2023-04-15T06:20:34.247Z,6.95
2023-04-15T06:23:36.805Z,9.00
2023-04-15T06:26:39.221Z,9.00
2023-04-15T06:29:41.755Z,8.23
2023-04-15T06:32:44.297Z,8.98
2023-04-15T06:35:47.450Z,16.45
2023-04-15T06:38:49.872Z,11.50
2023-04-15T06:41:52.593Z,19.20
2023-04-15T06:44:57.103Z,11.73
2023-04-15T06:47:59.576Z,11.77
2023-04-15T06:51:04.173Z,21.73
2023-04-15T06:54:07.501Z,9.32
2023-04-15T06:57:09.941Z,9.63
2023-04-15T07:00:12.886Z,9.25
2023-04-15T07:03:15.549Z,9.68
2023-04-15T07:06:18.006Z,11.70
2023-04-15T07:09:20.696Z,9.45
2023-04-15T07:12:23.288Z,8.40
2023-04-15T07:15:25.856Z,9.65
2023-04-15T07:18:28.365Z,11.25
2023-04-15T07:21:31.179Z,9.98
2023-04-15T07:24:33.837Z,10.77
2023-04-15T07:27:36.721Z,10.30
2023-04-15T07:30:39.570Z,10.35
2023-04-15T07:33:42.125Z,11.75
2023-04-15T07:36:44.631Z,12.35
2023-04-15T07:39:47.289Z,9.57
2023-04-15T07:42:50.021Z,8.10
2023-04-15T07:45:53.152Z,9.80
2023-04-15T07:48:55.625Z,12.93
2023-04-15T07:52:00.142Z,8.70
2023-04-15T07:55:02.741Z,5.68
2023-04-15T07:58:05.279Z,6.13
2023-04-15T08:01:07.863Z,7.72
2023-04-15T08:04:10.883Z,10.10
2023-04-15T08:07:13.527Z,7.78
2023-04-15T08:10:16.238Z,7.45
2023-04-15T08:13:18.887Z,5.53
2023-04-15T08:16:24.662Z,7.20
2023-04-15T08:19:27.292Z,7.30
2023-04-15T08:22:30.515Z,6.78
2023-04-15T08:25:33.423Z,5.88
2023-04-15T08:28:38.618Z,4.57
2023-04-15T08:31:41.161Z,5.82
2023-04-15T08:34:43.634Z,7.97
2023-04-15T08:37:46.152Z,8.35
2023-04-15T08:40:48.626Z,10.90
2023-04-15T08:43:57.875Z,7.30
2023-04-15T08:47:04.058Z,7.88
2023-04-15T08:50:09.332Z,6.55
2023-04-15T08:53:12.214Z,6.50
2023-04-15T08:56:16.762Z,6.22
2023-04-15T08:59:21.919Z,6.00
2023-04-15T09:02:26.409Z,5.95
2023-04-15T09:05:32.638Z,7.05
2023-04-15T09:08:35.921Z,5.85
2023-04-15T09:11:38.739Z,4.45
2023-04-15T09:14:41.503Z,4.30
2023-04-15T09:17:44.445Z,3.78
2023-04-15T09:20:47.431Z,3.88
2023-04-15T09:23:59.254Z,2.83
2023-04-15T09:27:02.487Z,2.40
2023-04-15T09:30:09.174Z,2.50
2023-04-15T09:33:14.785Z,3.67
2023-04-15T09:36:17.367Z,2.17
2023-04-15T09:39:20.618Z,2.13
2023-04-15T09:42:28.056Z,1.77
2023-04-15T09:45:31.338Z,11.20
2023-04-15T09:48:33.825Z,3.30
2023-04-15T09:51:36.660Z,1.80
2023-04-15T09:54:39.083Z,6.28
2023-04-15T09:57:41.900Z,2.75
2023-04-15T10:00:46.826Z,2.97
2023-04-15T10:03:49.941Z,4.22
2023-04-15T10:06:52.386Z,4.55
2023-04-15T10:09:55.391Z,3.58
2023-04-15T10:12:57.856Z,3.13
2023-04-15T10:16:16.969Z,5.27
2023-04-15T10:19:21.884Z,2.40
2023-04-15T10:22:26.044Z,3.10
2023-04-15T10:25:28.711Z,3.70
2023-04-15T10:28:31.123Z,3.00
2023-04-15T10:31:33.972Z,2.17
2023-04-15T10:34:37.097Z,3.22
2023-04-15T10:37:39.528Z,3.88
2023-04-15T10:40:42.397Z,3.58
2023-04-15T10:43:55.863Z,2.03
2023-04-15T10:46:58.813Z,2.47
2023-04-15T10:50:02.524Z,5.43
2023-04-15T10:53:05.806Z,1.55
2023-04-15T10:56:10.248Z,4.35
2023-04-15T10:59:12.676Z,2.20
2023-04-15T11:02:15.619Z,2.00
2023-04-15T11:05:18.798Z,3.80
2023-04-15T11:08:58.821Z,5.55
2023-04-15T11:12:10.901Z,2.40
2023-04-15T11:15:38.874Z,4.47
2023-04-15T11:18:41.502Z,2.93
2023-04-15T11:21:44.380Z,3.92
2023-04-15T11:24:50.564Z,1.70
2023-04-15T11:27:54.642Z,1.50
2023-04-15T11:30:57.800Z,1.30
2023-04-15T11:34:02.202Z,1.67
2023-04-15T11:37:06.458Z,1.63
2023-04-15T11:40:09.461Z,2.00
2023-04-15T11:43:15.966Z,2.13
2023-04-15T11:46:18.692Z,2.95
2023-04-15T11:49:30.391Z,2.40
2023-04-15T11:52:33.287Z,2.28
2023-04-15T11:55:49.746Z,3.20
2023-04-15T11:58:53.876Z,5.63
2023-04-15T12:01:56.491Z,3.90
2023-04-15T12:05:06.556Z,7.53
2023-04-15T12:08:09.145Z,2.22
2023-04-15T12:11:11.655Z,3.60
2023-04-15T12:14:33.151Z,1.00
2023-04-15T12:17:51.368Z,2.63
2023-04-15T12:20:54.754Z,1.87
2023-04-15T12:23:58.190Z,2.42
2023-04-15T12:27:08.317Z,4.80
2023-04-15T12:30:11.729Z,3.80
2023-04-15T12:33:14.732Z,5.20
2023-04-15T12:36:17.304Z,4.53
2023-04-15T12:39:28.676Z,3.78
2023-04-15T12:42:32.935Z,2.47
2023-04-15T12:45:35.338Z,3.17
2023-04-15T12:48:37.826Z,9.27
2023-04-15T12:51:40.990Z,4.70
2023-04-15T12:54:43.556Z,3.90
2023-04-15T12:57:45.961Z,4.32
2023-04-15T13:00:49.720Z,8.02
2023-04-15T13:03:52.230Z,6.47
2023-04-15T13:06:54.873Z,4.50
2023-04-15T13:09:57.368Z,4.53
2023-04-15T13:12:59.963Z,2.75
2023-04-15T13:16:02.539Z,4.38
2023-04-15T13:19:05.536Z,3.45
2023-04-15T13:22:08.897Z,4.90
2023-04-15T13:25:11.826Z,4.35
2023-04-15T13:28:14.422Z,4.07
2023-04-15T13:31:17.184Z,4.30
2023-04-15T13:34:19.661Z,2.70
2023-04-15T13:37:27.441Z,3.27
2023-04-15T13:40:29.922Z,2.25
2023-04-15T13:43:34.337Z,2.22
2023-04-15T13:46:37.877Z,6.53
2023-04-15T13:49:40.627Z,4.95
2023-04-15T13:52:43.042Z,4.33
2023-04-15T13:55:45.781Z,3.95
2023-04-15T13:58:48.470Z,4.55
2023-04-15T14:01:51.197Z,8.32
2023-04-15T14:04:53.738Z,2.90
2023-04-15T14:07:56.213Z,2.63
2023-04-15T14:10:58.851Z,1.58
2023-04-15T14:14:01.354Z,4.15
2023-04-15T14:17:04.626Z,5.13
2023-04-15T14:20:08.447Z,2.85
2023-04-15T14:23:11.078Z,2.20
2023-04-15T14:26:14.140Z,3.38
2023-04-15T14:29:17.156Z,4.55
2023-04-15T14:32:19.898Z,1.90
2023-04-15T14:35:22.342Z,8.48
2023-04-15T14:38:24.958Z,0.80
2023-04-15T14:41:27.482Z,2.45
2023-04-15T14:47:37.608Z,0.93
2023-04-15T14:50:40.692Z,1.17
2023-04-15T14:53:43.963Z,0.80
2023-04-15T14:56:46.430Z,5.40
2023-04-15T14:59:48.949Z,11.15
2023-04-15T15:02:51.570Z,8.98
2023-04-15T15:05:54.346Z,7.15
2023-04-15T15:08:57.143Z,8.10
2023-04-15T15:11:59.713Z,5.35
2023-04-15T15:15:12.307Z,5.85
2023-04-15T15:18:21.686Z,16.00
2023-04-15T15:21:24.184Z,22.88
2023-04-15T15:24:26.849Z,30.17
2023-04-15T15:27:29.316Z,13.75
2023-04-15T15:30:31.858Z,10.20
2023-04-15T15:33:34.366Z,21.52
2023-04-15T15:36:36.740Z,23.98
2023-04-15T15:39:39.297Z,49.70
2023-04-15T15:42:42.698Z,21.73
2023-04-15T15:45:45.599Z,49.50
2023-04-15T15:48:48.066Z,33.88
2023-04-15T15:51:50.512Z,7.13
2023-04-15T15:54:53.068Z,6.47
2023-04-15T15:57:55.585Z,11.43
2023-04-15T16:00:59.742Z,19.88
2023-04-15T16:04:03.704Z,7.28
2023-04-15T16:07:06.586Z,4.20
2023-04-15T16:10:09.468Z,3.87
2023-04-15T16:13:12.796Z,1.30
2023-04-15T16:16:15.572Z,1.17
2023-04-15T16:19:18.635Z,10.60
2023-04-15T16:22:21.539Z,14.18
2023-04-15T16:25:24.394Z,8.33
2023-04-15T16:28:27.451Z,13.05
2023-04-15T16:31:30.526Z,23.08
2023-04-15T16:34:32.965Z,8.52
2023-04-15T16:37:36.152Z,4.97
2023-04-15T16:40:38.622Z,58.50
2023-04-15T16:43:41.520Z,42.20
2023-04-15T16:46:44.110Z,13.82
2023-04-15T16:49:46.533Z,3.05
2023-04-15T16:52:49.108Z,2.63
2023-04-15T16:55:51.810Z,15.87
2023-04-15T16:58:54.831Z,6.22
2023-04-15T17:01:57.575Z,3.25
2023-04-15T17:05:01.430Z,3.10
2023-04-15T17:08:05.051Z,3.90
2023-04-15T17:11:07.604Z,5.40
2023-04-15T17:14:10.345Z,4.90
2023-04-15T17:17:12.777Z,5.15
2023-04-15T17:20:17.409Z,8.18
2023-04-15T17:23:19.973Z,21.17
2023-04-15T17:26:22.392Z,25.30
2023-04-15T17:29:31.267Z,17.65
2023-04-15T17:32:34.993Z,10.48
2023-04-15T17:35:39.069Z,7.63
2023-04-15T17:38:41.820Z,5.70
2023-04-15T17:41:44.597Z,5.40
2023-04-15T17:44:47.136Z,3.28
2023-04-15T17:47:49.905Z,2.63
2023-04-15T17:50:52.695Z,3.28
2023-04-15T17:53:55.961Z,3.33
2023-04-15T17:56:59.441Z,3.87
2023-04-15T18:00:02.423Z,4.63
2023-04-15T18:03:15.605Z,8.60
2023-04-15T18:06:21.318Z,18.95
2023-04-15T18:09:24.010Z,30.77
2023-04-15T18:12:26.627Z,28.53
2023-04-15T18:15:32.118Z,17.90
2023-04-15T18:18:34.960Z,12.68
2023-04-15T18:21:37.668Z,29.30
2023-04-15T18:24:40.409Z,37.40
2023-04-15T18:27:43.124Z,25.53
2023-04-15T18:30:46.086Z,25.83
2023-04-15T18:33:49.126Z,16.45
2023-04-15T18:36:51.742Z,68.45
2023-04-15T18:39:54.289Z,49.28
2023-04-15T18:42:57.035Z,13.30
2023-04-15T18:46:00.190Z,22.10
2023-04-15T18:49:02.955Z,19.15
2023-04-15T18:52:06.670Z,16.83
2023-04-15T18:55:09.373Z,18.95
2023-04-15T18:58:12.359Z,19.10
2023-04-15T19:01:15.020Z,19.05
2023-04-15T19:04:17.997Z,24.00
2023-04-15T19:07:20.756Z,24.10
2023-04-15T19:10:23.703Z,20.67
2023-04-15T19:13:26.693Z,16.40
2023-04-15T19:16:29.569Z,14.85
2023-04-15T19:19:32.869Z,10.90
2023-04-15T19:22:36.718Z,7.63
2023-04-15T19:25:39.453Z,8.82
2023-04-15T19:28:42.179Z,18.03
2023-04-15T19:31:45.323Z,15.63
2023-04-15T19:34:49.180Z,10.13
2023-04-15T19:37:51.717Z,9.23
2023-04-15T19:40:54.172Z,7.38
2023-04-15T19:43:56.985Z,8.27
2023-04-15T19:46:59.636Z,15.82
2023-04-15T19:50:02.992Z,14.15
2023-04-15T19:53:05.844Z,10.65
2023-04-15T19:56:09.114Z,15.88
2023-04-15T19:59:12.928Z,30.93
2023-04-15T20:02:16.095Z,30.52
2023-04-15T20:05:18.774Z,25.63
2023-04-15T20:08:21.467Z,15.98
2023-04-15T20:12:46.927Z,9.85
2023-04-15T20:14:52.391Z,9.83
2023-04-15T20:17:55.031Z,10.00
2023-04-15T20:20:57.887Z,11.65
2023-04-15T20:24:00.740Z,8.55
2023-04-15T20:27:03.998Z,9.55
2023-04-15T20:30:07.417Z,11.00
2023-04-15T20:33:10.041Z,11.00
2023-04-15T20:36:12.713Z,6.82
2023-04-15T20:39:15.235Z,5.95
2023-04-15T20:42:19.291Z,7.25
2023-04-15T20:45:22.019Z,6.83
2023-04-15T20:48:24.942Z,8.25
2023-04-15T20:51:27.697Z,11.05
2023-04-15T20:54:30.470Z,19.88
2023-04-15T20:57:33.118Z,7.07
2023-04-15T21:00:35.863Z,8.63
2023-04-15T21:03:38.557Z,7.53
2023-04-15T21:06:41.200Z,8.15
2023-04-15T21:09:44.012Z,7.40
2023-04-15T21:12:46.561Z,6.70
2023-04-15T21:15:53.227Z,8.40
2023-04-15T21:18:55.731Z,9.45
2023-04-15T21:21:58.300Z,6.35
2023-04-15T21:25:01.573Z,7.22
2023-04-15T21:28:04.326Z,9.23
2023-04-15T21:31:08.767Z,11.67
2023-04-15T21:34:11.502Z,13.18
2023-04-15T21:37:13.930Z,14.38
2023-04-15T21:40:18.576Z,11.63
2023-04-15T21:43:22.955Z,12.60
2023-04-15T21:46:34.988Z,13.43
2023-04-15T21:49:38.667Z,14.73
2023-04-15T21:52:41.305Z,12.07
2023-04-15T21:55:43.799Z,15.30
2023-04-15T21:58:46.313Z,12.32
2023-04-15T22:01:49.059Z,13.73
2023-04-15T22:04:51.793Z,11.07
2023-04-15T22:07:54.176Z,9.18
2023-04-15T22:10:56.599Z,11.15
2023-04-15T22:13:59.611Z,9.73
2023-04-15T22:17:02.078Z,6.97
2023-04-15T22:20:04.875Z,9.45
2023-04-15T22:23:10.046Z,8.75
2023-04-15T22:26:12.497Z,6.53
2023-04-15T22:29:15.011Z,6.97
2023-04-15T22:32:17.489Z,6.43
2023-04-15T22:35:19.961Z,7.30
2023-04-15T22:38:22.487Z,6.30
2023-04-15T22:41:24.862Z,7.40
2023-04-15T22:44:27.296Z,6.95
2023-04-15T22:47:29.840Z,7.60
2023-04-15T22:50:32.442Z,6.25
2023-04-15T22:53:35.018Z,7.30
2023-04-15T22:56:37.518Z,6.22
2023-04-15T22:59:40.004Z,7.03
2023-04-15T23:02:42.703Z,8.20
2023-04-15T23:05:45.674Z,6.63
2023-04-15T23:08:48.115Z,8.57
2023-04-15T23:11:50.929Z,7.30
2023-04-15T23:14:53.418Z,6.47
2023-04-15T23:17:56.149Z,9.20
2023-04-15T23:20:58.732Z,6.97
2023-04-15T23:24:01.306Z,8.07
2023-04-15T23:27:03.883Z,7.00
2023-04-15T23:30:09.008Z,7.65
2023-04-15T23:33:12.062Z,10.43
2023-04-15T23:36:14.672Z,8.55
2023-04-15T23:39:17.229Z,6.55
2023-04-15T23:42:19.715Z,8.02
2023-04-15T23:45:22.277Z,7.78
2023-04-15T23:48:25.004Z,6.63
2023-04-15T23:51:27.995Z,8.68
2023-04-15T23:54:31.159Z,7.75
2023-04-15T23:57:33.693Z,7.63
